ENML

Details ICAO ENML (MOL)
Name Molde Aro
Region Norway
Timezone Europe/Oslo (UTC+1.0)
Plans Departing 51
Arriving 52
Stats Elevation 10 ft / 3 m (AMSL)
Location 62.745572° 7.267482°
Runways 1
Magnetic Variation 1.716° E
Sunrise 2017-12-17 09:02:25 UTC / 2017-12-17 10:02:25 Local
Sunset 2017-12-17 13:54:24 UTC / 2017-12-17 14:54:24 Local
Advertisement - Login to hide

Runways

ID Width Length Bearing (true) Bearing (mag) Surface Threshold Offset Overrun Length
07 148 ft / 45 m 6,886 ft / 2,099 m 70.96° 69.24° Asphalt 230 ft / 70 m 0 ft / 0 m
25 148 ft / 45 m 6,886 ft / 2,099 m 251.00° 249.28° Asphalt 197 ft / 60 m 0 ft / 0 m

Approach Navaids

Runway Type Ident Frequency Range Bearing (true) Bearing (mag) Slope Elevation
07 Localiser ML 109.75 MHz 18 nm / 33 km 71.02° 69.31° - 4 ft / 1 m (AMSL)
07 Glidescope ML 109.75 MHz 10 nm / 19 km 71.02° 69.31° 3.10° 8 ft / 2 m (AMSL)
25 Localiser ME 109.10 MHz 18 nm / 33 km 256.01° 254.29° - 5 ft / 2 m (AMSL)

Map

Weather


0- 5 10 15 20 25 30 35+ Temperature / ° C

Clouds and Precipitation
Forecast for 2017-12-17 06:00 UTC. Updated an hour ago

Ground ~20,000 ft ~40,000 ft Winds

METAR

ENML 170150Z AUTO 25012KT 9999NDV OVC034/// 02/M01 Q1011

TAF

Not found

Frequencies

Tower 119.95 MHz MOLDE INFO
Tower 121.50 MHz MOLDE INFO
Warning: Do not use this data for real-world aviation or navigation. No guarantee of current accuracy is given.